sensor_id;sensor_type;location;lat;lon;timestamp;P1;P2;P0
59179;PMS7003;44956;52.422;20.818;2022-09-12T00:01:08;12.75;10.00;6.25
59179;PMS7003;44956;52.422;20.818;2022-09-12T00:04:16;11.00;11.00;7.25
59179;PMS7003;44956;52.422;20.818;2022-09-12T00:07:18;10.25;9.25;6.25
59179;PMS7003;44956;52.422;20.818;2022-09-12T00:10:20;9.50;8.00;5.50
59179;PMS7003;44956;52.422;20.818;2022-09-12T00:13:23;12.00;9.75;7.00
59179;PMS7003;44956;52.422;20.818;2022-09-12T00:16:26;10.75;10.75;7.00
59179;PMS7003;44956;52.422;20.818;2022-09-12T00:19:29;14.50;12.00;7.00
59179;PMS7003;44956;52.422;20.818;2022-09-12T00:22:31;8.75;8.50;6.25
59179;PMS7003;44956;52.422;20.818;2022-09-12T00:25:33;14.25;13.00;6.25
59179;PMS7003;44956;52.422;20.818;2022-09-12T00:28:36;11.00;8.00;5.75
59179;PMS7003;44956;52.422;20.818;2022-09-12T00:31:39;11.25;10.25;6.75
59179;PMS7003;44956;52.422;20.818;2022-09-12T00:34:42;12.00;11.00;7.00
59179;PMS7003;44956;52.422;20.818;2022-09-12T00:37:44;11.00;11.00;6.75
59179;PMS7003;44956;52.422;20.818;2022-09-12T00:40:47;13.25;10.75;6.25
59179;PMS7003;44956;52.422;20.818;2022-09-12T00:43:53;10.00;10.00;6.75
59179;PMS7003;44956;52.422;20.818;2022-09-12T00:47:05;11.25;9.75;6.00
59179;PMS7003;44956;52.422;20.818;2022-09-12T00:50:14;15.75;11.50;6.50
59179;PMS7003;44956;52.422;20.818;2022-09-12T00:53:17;11.50;9.50;6.75
59179;PMS7003;44956;52.422;20.818;2022-09-12T00:56:19;12.75;10.50;7.00
59179;PMS7003;44956;52.422;20.818;2022-09-12T00:59:26;10.50;10.50;6.00
59179;PMS7003;44956;52.422;20.818;2022-09-12T01:02:32;10.75;10.75;6.75
59179;PMS7003;44956;52.422;20.818;2022-09-12T01:05:35;10.25;9.00;5.00
59179;PMS7003;44956;52.422;20.818;2022-09-12T01:08:40;9.50;8.00;5.25
59179;PMS7003;44956;52.422;20.818;2022-09-12T01:11:44;14.50;10.25;6.25
59179;PMS7003;44956;52.422;20.818;2022-09-12T01:14:47;11.75;10.75;6.00
59179;PMS7003;44956;52.422;20.818;2022-09-12T01:47:57;15.25;11.75;7.50
59179;PMS7003;44956;52.422;20.818;2022-09-12T01:51:21;15.00;11.00;8.00
59179;PMS7003;44956;52.422;20.818;2022-09-12T01:54:26;11.00;7.50;5.75
59179;PMS7003;44956;52.422;20.818;2022-09-12T01:57:37;10.75;10.75;7.25
59179;PMS7003;44956;52.422;20.818;2022-09-12T02:00:54;11.00;8.75;6.75
59179;PMS7003;44956;52.422;20.818;2022-09-12T02:04:14;10.50;10.50;7.00
59179;PMS7003;44956;52.422;20.818;2022-09-12T02:07:21;17.25;12.25;7.00
59179;PMS7003;44956;52.422;20.818;2022-09-12T02:10:29;10.75;10.75;6.50
59179;PMS7003;44956;52.422;20.818;2022-09-12T02:13:36;15.00;11.00;7.00
59179;PMS7003;44956;52.422;20.818;2022-09-12T02:16:45;10.50;10.25;6.00
59179;PMS7003;44956;52.422;20.818;2022-09-12T02:19:52;11.50;10.00;7.50
59179;PMS7003;44956;52.422;20.818;2022-09-12T02:22:57;11.00;9.50;7.50
59179;PMS7003;44956;52.422;20.818;2022-09-12T02:26:09;16.00;13.25;7.75
59179;PMS7003;44956;52.422;20.818;2022-09-12T02:29:16;11.75;11.00;7.00
59179;PMS7003;44956;52.422;20.818;2022-09-12T02:35:24;11.75;11.50;7.00
59179;PMS7003;44956;52.422;20.818;2022-09-12T02:38:35;11.00;10.00;6.00
59179;PMS7003;44956;52.422;20.818;2022-09-12T02:41:41;15.00;11.00;7.50
59179;PMS7003;44956;52.422;20.818;2022-09-12T02:44:43;12.00;11.25;7.00
59179;PMS7003;44956;52.422;20.818;2022-09-12T02:47:59;11.25;11.25;7.00
59179;PMS7003;44956;52.422;20.818;2022-09-12T02:51:04;13.00;12.00;7.00
59179;PMS7003;44956;52.422;20.818;2022-09-12T02:54:06;13.75;12.25;7.50
59179;PMS7003;44956;52.422;20.818;2022-09-12T02:57:16;17.25;12.75;7.75
59179;PMS7003;44956;52.422;20.818;2022-09-12T03:00:23;10.75;9.25;6.00
59179;PMS7003;44956;52.422;20.818;2022-09-12T03:20:36;15.50;13.00;10.75
59179;PMS7003;44956;52.422;20.818;2022-09-12T03:27:33;13.00;13.00;8.25
59179;PMS7003;44956;52.422;20.818;2022-09-12T03:30:39;13.75;12.75;7.25
59179;PMS7003;44956;52.422;20.818;2022-09-12T03:33:42;10.25;10.25;6.00
59179;PMS7003;44956;52.422;20.818;2022-09-12T03:36:45;16.50;16.00;10.00
59179;PMS7003;44956;52.422;20.818;2022-09-12T03:39:47;15.75;13.50;7.50
59179;PMS7003;44956;52.422;20.818;2022-09-12T03:42:49;16.50;12.50;7.50
59179;PMS7003;44956;52.422;20.818;2022-09-12T03:45:51;14.25;12.25;8.00
59179;PMS7003;44956;52.422;20.818;2022-09-12T03:48:54;14.50;14.50;8.75
59179;PMS7003;44956;52.422;20.818;2022-09-12T03:51:56;10.75;10.75;5.50
59179;PMS7003;44956;52.422;20.818;2022-09-12T03:54:59;12.75;12.75;7.50
59179;PMS7003;44956;52.422;20.818;2022-09-12T03:58:01;11.50;11.50;6.00
59179;PMS7003;44956;52.422;20.818;2022-09-12T04:01:09;14.00;11.00;6.75
59179;PMS7003;44956;52.422;20.818;2022-09-12T04:04:14;11.75;11.25;6.75
59179;PMS7003;44956;52.422;20.818;2022-09-12T04:07:16;15.25;14.50;7.75
59179;PMS7003;44956;52.422;20.818;2022-09-12T04:10:18;14.25;13.75;7.75
59179;PMS7003;44956;52.422;20.818;2022-09-12T04:13:20;16.25;12.50;7.75
59179;PMS7003;44956;52.422;20.818;2022-09-12T04:16:22;12.75;11.75;7.75
59179;PMS7003;44956;52.422;20.818;2022-09-12T04:19:25;16.25;13.25;9.25
59179;PMS7003;44956;52.422;20.818;2022-09-12T04:22:27;12.00;11.00;7.00
59179;PMS7003;44956;52.422;20.818;2022-09-12T04:25:30;16.50;14.75;8.25
59179;PMS7003;44956;52.422;20.818;2022-09-12T04:28:33;16.25;13.00;7.50
59179;PMS7003;44956;52.422;20.818;2022-09-12T04:31:37;17.00;12.00;7.25
59179;PMS7003;44956;52.422;20.818;2022-09-12T04:34:39;16.00;15.00;8.00
59179;PMS7003;44956;52.422;20.818;2022-09-12T04:37:41;13.25;12.00;7.00
59179;PMS7003;44956;52.422;20.818;2022-09-12T04:40:43;15.50;13.75;8.00
59179;PMS7003;44956;52.422;20.818;2022-09-12T04:43:46;16.75;16.00;10.00
59179;PMS7003;44956;52.422;20.818;2022-09-12T04:46:49;13.00;13.00;10.00
59179;PMS7003;44956;52.422;20.818;2022-09-12T04:49:51;15.00;12.75;8.00
59179;PMS7003;44956;52.422;20.818;2022-09-12T04:52:54;16.75;12.25;7.25
59179;PMS7003;44956;52.422;20.818;2022-09-12T04:56:00;15.75;13.00;8.00
59179;PMS7003;44956;52.422;20.818;2022-09-12T04:59:03;14.50;12.25;7.50
59179;PMS7003;44956;52.422;20.818;2022-09-12T05:02:05;16.50;15.00;10.00
59179;PMS7003;44956;52.422;20.818;2022-09-12T05:05:08;14.50;12.75;8.75
59179;PMS7003;44956;52.422;20.818;2022-09-12T05:08:10;13.00;11.00;7.00
59179;PMS7003;44956;52.422;20.818;2022-09-12T05:11:14;13.50;11.50;7.50
59179;PMS7003;44956;52.422;20.818;2022-09-12T05:14:23;12.75;11.50;7.00
59179;PMS7003;44956;52.422;20.818;2022-09-12T05:17:27;17.50;15.25;8.50
59179;PMS7003;44956;52.422;20.818;2022-09-12T05:20:31;13.50;12.25;9.25
59179;PMS7003;44956;52.422;20.818;2022-09-12T05:23:34;15.50;14.50;9.50
59179;PMS7003;44956;52.422;20.818;2022-09-12T05:26:36;14.75;14.75;7.50
59179;PMS7003;44956;52.422;20.818;2022-09-12T05:29:39;14.75;11.75;7.00
59179;PMS7003;44956;52.422;20.818;2022-09-12T05:32:41;14.25;14.25;9.25
59179;PMS7003;44956;52.422;20.818;2022-09-12T05:35:49;15.50;12.00;8.00
59179;PMS7003;44956;52.422;20.818;2022-09-12T05:38:52;12.75;12.00;9.00
59179;PMS7003;44956;52.422;20.818;2022-09-12T05:41:54;13.00;11.75;8.00
59179;PMS7003;44956;52.422;20.818;2022-09-12T05:44:57;11.75;11.75;7.00
59179;PMS7003;44956;52.422;20.818;2022-09-12T05:47:59;16.25;15.00;7.50
59179;PMS7003;44956;52.422;20.818;2022-09-12T05:51:08;13.00;13.00;7.75
59179;PMS7003;44956;52.422;20.818;2022-09-12T05:54:13;11.00;10.50;7.25
59179;PMS7003;44956;52.422;20.818;2022-09-12T05:57:18;11.25;8.50;4.50
59179;PMS7003;44956;52.422;20.818;2022-09-12T06:00:20;16.25;12.25;7.00
59179;PMS7003;44956;52.422;20.818;2022-09-12T06:03:22;12.50;11.75;8.00
59179;PMS7003;44956;52.422;20.818;2022-09-12T06:06:25;15.50;15.50;8.00
59179;PMS7003;44956;52.422;20.818;2022-09-12T06:09:28;13.00;12.00;8.00
59179;PMS7003;44956;52.422;20.818;2022-09-12T06:12:30;11.25;11.00;8.00
59179;PMS7003;44956;52.422;20.818;2022-09-12T06:15:32;12.25;12.00;7.00
59179;PMS7003;44956;52.422;20.818;2022-09-12T06:18:35;16.75;15.75;8.00
59179;PMS7003;44956;52.422;20.818;2022-09-12T06:21:38;13.50;10.25;7.00
59179;PMS7003;44956;52.422;20.818;2022-09-12T06:24:40;13.50;13.50;7.75
59179;PMS7003;44956;52.422;20.818;2022-09-12T06:27:43;11.25;11.25;8.00
59179;PMS7003;44956;52.422;20.818;2022-09-12T06:30:45;13.50;13.50;8.25
59179;PMS7003;44956;52.422;20.818;2022-09-12T06:33:48;15.00;15.00;8.00
59179;PMS7003;44956;52.422;20.818;2022-09-12T06:36:51;13.00;13.00;8.00
59179;PMS7003;44956;52.422;20.818;2022-09-12T06:39:54;13.25;11.50;7.00
59179;PMS7003;44956;52.422;20.818;2022-09-12T06:42:57;17.75;13.75;10.00
59179;PMS7003;44956;52.422;20.818;2022-09-12T06:46:11;12.50;12.50;9.25
59179;PMS7003;44956;52.422;20.818;2022-09-12T06:49:14;12.75;12.25;7.50
59179;PMS7003;44956;52.422;20.818;2022-09-12T06:52:16;14.25;14.25;10.75
59179;PMS7003;44956;52.422;20.818;2022-09-12T06:55:18;13.00;13.00;8.50
59179;PMS7003;44956;52.422;20.818;2022-09-12T06:58:27;13.00;12.25;7.50
59179;PMS7003;44956;52.422;20.818;2022-09-12T07:01:30;11.50;11.00;8.00
59179;PMS7003;44956;52.422;20.818;2022-09-12T07:04:33;16.25;13.50;9.25
59179;PMS7003;44956;52.422;20.818;2022-09-12T07:07:37;16.75;13.50;7.50
59179;PMS7003;44956;52.422;20.818;2022-09-12T07:10:39;13.25;11.75;7.00
59179;PMS7003;44956;52.422;20.818;2022-09-12T07:13:42;13.25;13.25;8.00
59179;PMS7003;44956;52.422;20.818;2022-09-12T07:16:46;13.25;13.25;9.75
59179;PMS7003;44956;52.422;20.818;2022-09-12T07:19:48;14.25;11.75;7.00
59179;PMS7003;44956;52.422;20.818;2022-09-12T07:22:50;19.00;13.00;8.25
59179;PMS7003;44956;52.422;20.818;2022-09-12T07:25:53;18.50;13.00;8.00
59179;PMS7003;44956;52.422;20.818;2022-09-12T07:28:57;17.00;14.75;8.50
59179;PMS7003;44956;52.422;20.818;2022-09-12T07:32:20;12.00;9.00;7.00
59179;PMS7003;44956;52.422;20.818;2022-09-12T07:35:23;12.25;12.25;8.00
59179;PMS7003;44956;52.422;20.818;2022-09-12T07:38:26;14.75;13.75;8.00
59179;PMS7003;44956;52.422;20.818;2022-09-12T07:41:29;12.25;12.25;8.00
59179;PMS7003;44956;52.422;20.818;2022-09-12T07:44:34;14.00;14.00;7.50
59179;PMS7003;44956;52.422;20.818;2022-09-12T07:47:36;17.50;12.50;7.00
59179;PMS7003;44956;52.422;20.818;2022-09-12T07:50:38;13.00;12.00;7.00
59179;PMS7003;44956;52.422;20.818;2022-09-12T07:53:46;12.50;12.50;7.75
59179;PMS7003;44956;52.422;20.818;2022-09-12T07:56:49;11.50;11.50;7.00
59179;PMS7003;44956;52.422;20.818;2022-09-12T07:59:52;15.25;13.50;9.00
59179;PMS7003;44956;52.422;20.818;2022-09-12T08:02:54;14.25;13.75;7.00
59179;PMS7003;44956;52.422;20.818;2022-09-12T08:09:06;12.75;10.00;7.00
59179;PMS7003;44956;52.422;20.818;2022-09-12T08:12:08;9.75;9.75;7.50
59179;PMS7003;44956;52.422;20.818;2022-09-12T08:15:11;9.75;9.00;5.25
59179;PMS7003;44956;52.422;20.818;2022-09-12T08:18:13;9.00;9.00;6.00
59179;PMS7003;44956;52.422;20.818;2022-09-12T08:21:21;14.50;13.00;8.50
59179;PMS7003;44956;52.422;20.818;2022-09-12T08:24:25;9.75;9.00;7.00
59179;PMS7003;44956;52.422;20.818;2022-09-12T08:27:28;10.25;9.75;6.50
59179;PMS7003;44956;52.422;20.818;2022-09-12T08:30:30;13.00;11.75;7.25
59179;PMS7003;44956;52.422;20.818;2022-09-12T08:33:33;10.25;10.25;7.50
59179;PMS7003;44956;52.422;20.818;2022-09-12T08:36:36;10.50;10.50;7.25
59179;PMS7003;44956;52.422;20.818;2022-09-12T08:39:38;14.25;13.25;7.75
59179;PMS7003;44956;52.422;20.818;2022-09-12T08:46:10;10.50;10.00;7.50
59179;PMS7003;44956;52.422;20.818;2022-09-12T08:53:17;11.00;10.25;8.00
59179;PMS7003;44956;52.422;20.818;2022-09-12T08:56:22;13.50;10.75;8.25
59179;PMS7003;44956;52.422;20.818;2022-09-12T08:59:39;9.25;9.00;7.50
59179;PMS7003;44956;52.422;20.818;2022-09-12T09:06:18;13.75;9.50;5.00
59179;PMS7003;44956;52.422;20.818;2022-09-12T09:09:35;9.50;9.50;6.25
59179;PMS7003;44956;52.422;20.818;2022-09-12T09:15:59;8.25;8.25;6.75
59179;PMS7003;44956;52.422;20.818;2022-09-12T09:19:27;10.75;10.75;8.00
59179;PMS7003;44956;52.422;20.818;2022-09-12T09:25:41;12.50;10.00;8.00
59179;PMS7003;44956;52.422;20.818;2022-09-12T09:29:05;11.50;10.50;8.75
59179;PMS7003;44956;52.422;20.818;2022-09-12T09:32:26;10.25;10.25;8.00
59179;PMS7003;44956;52.422;20.818;2022-09-12T09:45:19;12.00;11.50;8.25
59179;PMS7003;44956;52.422;20.818;2022-09-12T09:48:31;11.00;11.00;8.50
59179;PMS7003;44956;52.422;20.818;2022-09-12T09:51:37;9.75;9.75;7.00
59179;PMS7003;44956;52.422;20.818;2022-09-12T09:54:45;10.25;10.00;7.00
59179;PMS7003;44956;52.422;20.818;2022-09-12T09:57:54;11.00;10.00;6.25
59179;PMS7003;44956;52.422;20.818;2022-09-12T10:01:04;13.00;13.00;8.75
59179;PMS7003;44956;52.422;20.818;2022-09-12T10:04:08;13.25;12.00;8.00
59179;PMS7003;44956;52.422;20.818;2022-09-12T10:07:27;10.00;10.00;8.00
59179;PMS7003;44956;52.422;20.818;2022-09-12T10:10:30;9.00;9.00;7.25
59179;PMS7003;44956;52.422;20.818;2022-09-12T10:13:39;9.25;9.25;7.50
59179;PMS7003;44956;52.422;20.818;2022-09-12T10:16:50;9.50;9.50;5.75
59179;PMS7003;44956;52.422;20.818;2022-09-12T10:19:56;12.00;10.75;6.25
59179;PMS7003;44956;52.422;20.818;2022-09-12T10:23:32;14.00;11.75;8.25
59179;PMS7003;44956;52.422;20.818;2022-09-12T10:26:38;9.00;9.00;7.50
59179;PMS7003;44956;52.422;20.818;2022-09-12T10:29:45;11.00;10.00;6.50
59179;PMS7003;44956;52.422;20.818;2022-09-12T10:32:53;8.00;8.00;5.00
59179;PMS7003;44956;52.422;20.818;2022-09-12T10:35:59;9.00;7.50;3.75
59179;PMS7003;44956;52.422;20.818;2022-09-12T10:39:02;11.00;11.00;8.00
59179;PMS7003;44956;52.422;20.818;2022-09-12T10:42:05;9.00;9.00;4.50
59179;PMS7003;44956;52.422;20.818;2022-09-12T10:45:50;12.25;10.75;8.00
59179;PMS7003;44956;52.422;20.818;2022-09-12T10:48:36;11.00;11.00;8.25
59179;PMS7003;44956;52.422;20.818;2022-09-12T10:51:39;9.50;8.25;5.00
59179;PMS7003;44956;52.422;20.818;2022-09-12T10:54:41;10.25;10.25;6.00
59179;PMS7003;44956;52.422;20.818;2022-09-12T11:01:12;12.25;10.25;8.00
59179;PMS7003;44956;52.422;20.818;2022-09-12T11:04:51;11.25;10.50;8.00
59179;PMS7003;44956;52.422;20.818;2022-09-12T11:08:15;11.00;11.00;6.50
59179;PMS7003;44956;52.422;20.818;2022-09-12T11:18:25;10.25;10.00;6.25
59179;PMS7003;44956;52.422;20.818;2022-09-12T11:35:53;12.00;11.00;8.00
59179;PMS7003;44956;52.422;20.818;2022-09-12T11:39:02;9.25;9.25;6.00
59179;PMS7003;44956;52.422;20.818;2022-09-12T11:42:25;10.00;10.00;7.00
59179;PMS7003;44956;52.422;20.818;2022-09-12T11:45:35;10.50;9.25;5.75
59179;PMS7003;44956;52.422;20.818;2022-09-12T11:52:45;9.50;9.00;5.50
59179;PMS7003;44956;52.422;20.818;2022-09-12T11:55:26;9.50;9.00;6.00
59179;PMS7003;44956;52.422;20.818;2022-09-12T11:58:30;8.50;6.50;5.00
59179;PMS7003;44956;52.422;20.818;2022-09-12T12:01:34;9.25;7.00;5.00
59179;PMS7003;44956;52.422;20.818;2022-09-12T12:04:58;5.25;5.25;4.25
59179;PMS7003;44956;52.422;20.818;2022-09-12T12:08:21;9.00;8.00;4.25
59179;PMS7003;44956;52.422;20.818;2022-09-12T12:11:35;7.25;7.25;4.25
59179;PMS7003;44956;52.422;20.818;2022-09-12T12:14:42;7.50;7.25;4.75
59179;PMS7003;44956;52.422;20.818;2022-09-12T12:17:58;7.00;6.75;5.50
59179;PMS7003;44956;52.422;20.818;2022-09-12T12:21:25;9.75;9.75;6.00
59179;PMS7003;44956;52.422;20.818;2022-09-12T12:24:32;7.75;7.75;5.50
59179;PMS7003;44956;52.422;20.818;2022-09-12T12:27:49;10.25;7.50;5.25
59179;PMS7003;44956;52.422;20.818;2022-09-12T12:31:00;7.25;7.25;5.75
59179;PMS7003;44956;52.422;20.818;2022-09-12T12:34:03;10.75;10.00;6.00
59179;PMS7003;44956;52.422;20.818;2022-09-12T12:40:25;9.25;7.50;5.00
59179;PMS7003;44956;52.422;20.818;2022-09-12T12:43:31;7.25;7.25;5.00
59179;PMS7003;44956;52.422;20.818;2022-09-12T12:46:33;9.00;9.00;5.50
59179;PMS7003;44956;52.422;20.818;2022-09-12T12:49:39;10.50;8.75;5.75
59179;PMS7003;44956;52.422;20.818;2022-09-12T12:56:03;9.25;9.25;6.00
59179;PMS7003;44956;52.422;20.818;2022-09-12T13:05:45;9.50;9.50;5.75
59179;PMS7003;44956;52.422;20.818;2022-09-12T13:09:16;10.75;9.75;6.00
59179;PMS7003;44956;52.422;20.818;2022-09-12T13:12:35;8.25;8.25;5.00
59179;PMS7003;44956;52.422;20.818;2022-09-12T13:15:48;10.00;9.50;6.00
59179;PMS7003;44956;52.422;20.818;2022-09-12T13:18:51;10.25;10.25;7.00
59179;PMS7003;44956;52.422;20.818;2022-09-12T13:21:54;10.75;10.75;6.50
59179;PMS7003;44956;52.422;20.818;2022-09-12T13:24:57;11.00;10.75;6.00
59179;PMS7003;44956;52.422;20.818;2022-09-12T13:31:22;11.75;10.75;6.75
59179;PMS7003;44956;52.422;20.818;2022-09-12T13:34:27;5.00;4.75;3.00
59179;PMS7003;44956;52.422;20.818;2022-09-12T13:44:45;9.50;7.00;6.00
59179;PMS7003;44956;52.422;20.818;2022-09-12T13:47:52;7.50;7.50;5.25
59179;PMS7003;44956;52.422;20.818;2022-09-12T13:51:06;10.00;7.75;6.00
59179;PMS7003;44956;52.422;20.818;2022-09-12T13:54:11;8.25;8.25;5.75
59179;PMS7003;44956;52.422;20.818;2022-09-12T13:57:31;8.25;8.25;6.00
59179;PMS7003;44956;52.422;20.818;2022-09-12T14:00:38;9.25;8.00;5.00
59179;PMS7003;44956;52.422;20.818;2022-09-12T14:04:07;11.00;8.00;5.25
59179;PMS7003;44956;52.422;20.818;2022-09-12T14:07:27;9.25;8.00;5.00
59179;PMS7003;44956;52.422;20.818;2022-09-12T14:10:36;8.00;8.00;6.00
59179;PMS7003;44956;52.422;20.818;2022-09-12T14:13:41;9.50;8.00;5.50
59179;PMS7003;44956;52.422;20.818;2022-09-12T14:16:43;9.50;8.75;6.00
59179;PMS7003;44956;52.422;20.818;2022-09-12T14:19:45;8.00;8.00;6.00
59179;PMS7003;44956;52.422;20.818;2022-09-12T14:22:49;6.50;6.50;5.00
59179;PMS7003;44956;52.422;20.818;2022-09-12T14:25:53;6.50;6.50;5.00
59179;PMS7003;44956;52.422;20.818;2022-09-12T14:28:57;5.00;5.00;4.00
59179;PMS7003;44956;52.422;20.818;2022-09-12T14:32:00;6.00;6.00;4.00
59179;PMS7003;44956;52.422;20.818;2022-09-12T14:41:21;7.00;7.00;5.00
59179;PMS7003;44956;52.422;20.818;2022-09-12T14:44:27;5.50;5.50;4.00
59179;PMS7003;44956;52.422;20.818;2022-09-12T14:47:34;7.00;6.00;4.00
59179;PMS7003;44956;52.422;20.818;2022-09-12T14:50:40;7.25;6.75;5.00
59179;PMS7003;44956;52.422;20.818;2022-09-12T14:53:46;8.75;7.50;5.25
59179;PMS7003;44956;52.422;20.818;2022-09-12T14:56:56;6.50;6.50;4.50
59179;PMS7003;44956;52.422;20.818;2022-09-12T15:03:21;7.00;6.50;4.75
59179;PMS7003;44956;52.422;20.818;2022-09-12T15:06:30;6.50;6.50;4.50
59179;PMS7003;44956;52.422;20.818;2022-09-12T15:09:34;7.75;7.75;5.00
59179;PMS7003;44956;52.422;20.818;2022-09-12T15:12:36;6.50;6.50;5.00
59179;PMS7003;44956;52.422;20.818;2022-09-12T15:15:39;9.25;9.25;5.25
59179;PMS7003;44956;52.422;20.818;2022-09-12T15:19:00;6.75;6.75;4.50
59179;PMS7003;44956;52.422;20.818;2022-09-12T15:22:03;9.75;8.25;5.75
59179;PMS7003;44956;52.422;20.818;2022-09-12T15:25:05;7.75;6.50;4.00
59179;PMS7003;44956;52.422;20.818;2022-09-12T15:28:14;5.00;5.00;4.00
59179;PMS7003;44956;52.422;20.818;2022-09-12T15:34:26;5.25;5.25;4.00
59179;PMS7003;44956;52.422;20.818;2022-09-12T15:37:28;7.00;6.00;5.00
59179;PMS7003;44956;52.422;20.818;2022-09-12T15:40:32;11.50;7.75;6.00
59179;PMS7003;44956;52.422;20.818;2022-09-12T15:43:34;7.75;7.75;5.50
59179;PMS7003;44956;52.422;20.818;2022-09-12T15:46:36;5.75;5.75;3.50
59179;PMS7003;44956;52.422;20.818;2022-09-12T15:49:39;6.75;6.75;5.00
59179;PMS7003;44956;52.422;20.818;2022-09-12T15:52:41;4.25;4.25;3.25
59179;PMS7003;44956;52.422;20.818;2022-09-12T15:55:43;7.00;5.00;4.25
59179;PMS7003;44956;52.422;20.818;2022-09-12T15:58:46;9.25;9.25;5.75
59179;PMS7003;44956;52.422;20.818;2022-09-12T16:02:00;6.50;6.50;4.00
59179;PMS7003;44956;52.422;20.818;2022-09-12T16:05:03;8.25;8.00;5.00
59179;PMS7003;44956;52.422;20.818;2022-09-12T16:08:06;11.75;10.75;7.50
59179;PMS7003;44956;52.422;20.818;2022-09-12T16:11:22;8.25;8.25;6.00
59179;PMS7003;44956;52.422;20.818;2022-09-12T16:14:25;11.50;7.50;6.00
59179;PMS7003;44956;52.422;20.818;2022-09-12T16:17:27;9.50;9.50;7.00
59179;PMS7003;44956;52.422;20.818;2022-09-12T16:20:30;11.25;8.50;6.50
59179;PMS7003;44956;52.422;20.818;2022-09-12T16:23:33;8.00;8.00;6.00
59179;PMS7003;44956;52.422;20.818;2022-09-12T16:26:36;12.00;10.25;7.00
59179;PMS7003;44956;52.422;20.818;2022-09-12T16:29:38;12.00;12.00;7.25
59179;PMS7003;44956;52.422;20.818;2022-09-12T16:32:41;11.50;11.50;6.50
59179;PMS7003;44956;52.422;20.818;2022-09-12T16:35:44;12.75;12.75;7.00
59179;PMS7003;44956;52.422;20.818;2022-09-12T16:38:47;12.00;11.75;8.00
59179;PMS7003;44956;52.422;20.818;2022-09-12T16:41:54;11.75;11.75;7.75
59179;PMS7003;44956;52.422;20.818;2022-09-12T16:44:56;9.25;9.25;7.75
59179;PMS7003;44956;52.422;20.818;2022-09-12T16:47:59;13.00;12.25;8.75
59179;PMS7003;44956;52.422;20.818;2022-09-12T16:51:03;10.00;10.00;6.00
59179;PMS7003;44956;52.422;20.818;2022-09-12T16:54:08;14.50;13.00;8.75
59179;PMS7003;44956;52.422;20.818;2022-09-12T16:57:10;14.00;13.25;9.50
59179;PMS7003;44956;52.422;20.818;2022-09-12T17:00:13;14.50;14.25;11.00
59179;PMS7003;44956;52.422;20.818;2022-09-12T17:03:15;13.00;13.00;9.75
59179;PMS7003;44956;52.422;20.818;2022-09-12T17:06:18;12.00;11.50;8.50
59179;PMS7003;44956;52.422;20.818;2022-09-12T17:09:20;15.00;14.00;9.00
59179;PMS7003;44956;52.422;20.818;2022-09-12T17:12:23;13.75;13.25;10.00
59179;PMS7003;44956;52.422;20.818;2022-09-12T17:15:26;13.00;13.00;8.50
59179;PMS7003;44956;52.422;20.818;2022-09-12T17:18:29;16.25;16.00;10.50
59179;PMS7003;44956;52.422;20.818;2022-09-12T17:21:32;15.25;14.25;10.50
59179;PMS7003;44956;52.422;20.818;2022-09-12T17:24:35;14.25;14.25;11.00
59179;PMS7003;44956;52.422;20.818;2022-09-12T17:27:37;13.50;13.00;11.00
59179;PMS7003;44956;52.422;20.818;2022-09-12T17:30:39;18.25;16.00;11.75
59179;PMS7003;44956;52.422;20.818;2022-09-12T17:33:42;12.25;12.25;9.00
59179;PMS7003;44956;52.422;20.818;2022-09-12T17:36:45;16.25;14.75;10.75
59179;PMS7003;44956;52.422;20.818;2022-09-12T17:39:49;14.00;13.50;10.25
59179;PMS7003;44956;52.422;20.818;2022-09-12T17:42:52;15.50;15.00;10.50
59179;PMS7003;44956;52.422;20.818;2022-09-12T17:45:54;16.75;16.75;12.00
59179;PMS7003;44956;52.422;20.818;2022-09-12T17:49:00;11.00;11.00;8.00
59179;PMS7003;44956;52.422;20.818;2022-09-12T17:52:04;14.25;14.25;10.25
59179;PMS7003;44956;52.422;20.818;2022-09-12T17:55:07;16.00;16.00;10.25
59179;PMS7003;44956;52.422;20.818;2022-09-12T17:58:09;13.75;13.50;10.25
59179;PMS7003;44956;52.422;20.818;2022-09-12T18:01:12;15.25;13.00;9.75
59179;PMS7003;44956;52.422;20.818;2022-09-12T18:04:34;16.75;16.75;11.00
59179;PMS7003;44956;52.422;20.818;2022-09-12T18:07:37;17.50;16.25;9.50
59179;PMS7003;44956;52.422;20.818;2022-09-12T18:10:45;18.25;17.50;12.00
59179;PMS7003;44956;52.422;20.818;2022-09-12T18:13:47;16.50;16.50;11.25
59179;PMS7003;44956;52.422;20.818;2022-09-12T18:16:49;21.00;17.75;12.00
59179;PMS7003;44956;52.422;20.818;2022-09-12T18:19:53;15.25;15.25;10.25
59179;PMS7003;44956;52.422;20.818;2022-09-12T18:22:56;17.25;16.75;11.50
59179;PMS7003;44956;52.422;20.818;2022-09-12T18:25:59;16.75;14.75;10.75
59179;PMS7003;44956;52.422;20.818;2022-09-12T18:29:02;17.25;17.25;10.75
59179;PMS7003;44956;52.422;20.818;2022-09-12T18:32:08;17.50;15.75;10.00
59179;PMS7003;44956;52.422;20.818;2022-09-12T18:35:10;15.50;14.25;11.00
59179;PMS7003;44956;52.422;20.818;2022-09-12T18:38:12;20.00;18.50;12.00
59179;PMS7003;44956;52.422;20.818;2022-09-12T18:41:16;19.00;16.00;10.25
59179;PMS7003;44956;52.422;20.818;2022-09-12T18:44:21;15.75;15.50;11.00
59179;PMS7003;44956;52.422;20.818;2022-09-12T18:47:24;14.25;13.25;10.50
59179;PMS7003;44956;52.422;20.818;2022-09-12T18:50:26;17.25;15.75;10.00
59179;PMS7003;44956;52.422;20.818;2022-09-12T18:53:32;19.00;15.75;9.50
59179;PMS7003;44956;52.422;20.818;2022-09-12T18:56:35;15.50;15.50;10.25
59179;PMS7003;44956;52.422;20.818;2022-09-12T18:59:39;15.50;15.00;10.50
59179;PMS7003;44956;52.422;20.818;2022-09-12T19:02:41;17.25;16.00;11.25
59179;PMS7003;44956;52.422;20.818;2022-09-12T19:05:44;14.00;14.00;9.00
59179;PMS7003;44956;52.422;20.818;2022-09-12T19:08:47;14.00;14.00;10.00
59179;PMS7003;44956;52.422;20.818;2022-09-12T19:11:51;18.00;15.00;10.75
59179;PMS7003;44956;52.422;20.818;2022-09-12T19:14:53;17.75;15.50;10.00
59179;PMS7003;44956;52.422;20.818;2022-09-12T19:17:56;16.00;15.50;10.00
59179;PMS7003;44956;52.422;20.818;2022-09-12T19:21:00;16.50;16.50;10.75
59179;PMS7003;44956;52.422;20.818;2022-09-12T19:24:05;15.75;13.50;10.25
59179;PMS7003;44956;52.422;20.818;2022-09-12T19:27:11;17.00;16.00;10.25
59179;PMS7003;44956;52.422;20.818;2022-09-12T19:31:06;17.75;17.75;12.25
59179;PMS7003;44956;52.422;20.818;2022-09-12T19:34:27;17.00;17.00;10.00
59179;PMS7003;44956;52.422;20.818;2022-09-12T19:37:31;15.00;14.00;9.00
59179;PMS7003;44956;52.422;20.818;2022-09-12T19:40:35;15.25;15.25;9.75
59179;PMS7003;44956;52.422;20.818;2022-09-12T19:43:45;16.25;16.25;10.50
59179;PMS7003;44956;52.422;20.818;2022-09-12T19:46:47;15.75;15.00;10.00
59179;PMS7003;44956;52.422;20.818;2022-09-12T19:49:50;17.50;16.00;10.50
59179;PMS7003;44956;52.422;20.818;2022-09-12T19:52:53;9.75;9.75;5.00
59179;PMS7003;44956;52.422;20.818;2022-09-12T19:55:59;14.50;14.50;10.25
59179;PMS7003;44956;52.422;20.818;2022-09-12T19:59:02;21.00;19.75;13.00